Reserve, Louisiana
Current Conditions -  °F | °C
As of 10:35 PM on Sunday 21 Dec 2014 (Local Time) from K1L0 Reporting Station
Haze Haze  
Wind Chill: 57°   Ceiling: 700
Heat Index: 57°   Visibility: 5mi
Dew Point: 53°   Wind: 5mph
Humidity: 89%   Direction: 90°E
Pressure: 29.96"   Gusts: NA
Location:  30.06°N, 90.55°W
Report Text: K1L0 220435Z AUTO 09004KT 5SM BR OVC007 14/12 A2996 RMK AO2 T01370119
Loading
Personal Weather Stations






























Interactive Weather Map New forecast layout! Learn more

10-Day Weather Forecast

Advertisements
Track Severe Weather on mobile